kylie maree Speed Test Results

        Days  
kylie maree kylie maree
Share Query AVG Img MAX Img AVG bbc MAX bbc iFrame
  
 
Showing results 1 to 25 of 66 for Username kylie maree arrow up Only Upload    arrow down Only Download   
Time arrow down ct    arrow up arrow down   Size    Speed ConnectID Provider TID
Mon Mar 20 2017 @ 5:07:50 am Sydney, AU US arrow 6.3 MB 10.98 Mbps 1.37 MB/s14502135812528Cadence Design historypdwNQ6vktshare history
Mon Mar 20 2017 @ 5:07:22 am Sydney, AU US arrow 22.4 MB 15.62 Mbps 1.95 MB/s14502135812528Cadence Design historyo4b8PvWDQshare history
Mon Mar 20 2017 @ 5:02:18 am Sydney, AU US arrow 6.4 MB 12.3 Mbps 1.54 MB/s14502135812528Cadence Design historyAc3PpnqXOshare history
Mon Mar 20 2017 @ 5:01:53 am Sydney, AU US arrow 22.6 MB 16.79 Mbps 2.1 MB/s14502135812528Cadence Design historybv9JGeEknshare history
Mon Mar 20 2017 @ 4:56:49 am Sydney, AU US arrow 6.3 MB 11.9 Mbps 1.49 MB/s14502135812528Cadence Design historydtUiGS2h7share history
Mon Mar 20 2017 @ 4:56:23 am Sydney, AU US arrow 11.4 MB 11.55 Mbps 1.44 MB/s14502135812528Cadence Design historyQSc3IW1EBshare history
Mon Mar 20 2017 @ 4:51:47 am Sydney, AU US arrow 19.1 MB 13.45 Mbps 1.68 MB/s14502135812528Cadence Design historyXIZVQa6iLshare history
Mon Mar 20 2017 @ 4:50:54 am Sydney, AU US arrow 22.9 MB 16.49 Mbps 2.06 MB/s14502135812528Cadence Design historyBDzLoYhQ6share history
Mon Mar 20 2017 @ 4:46:17 am Sydney, AU US arrow 18.5 MB 13.5 Mbps 1.69 MB/s14502135812528Cadence Design historyCkTUb89Ivshare history
Mon Mar 20 2017 @ 4:45:26 am Sydney, AU US arrow 23.1 MB 17.81 Mbps 2.23 MB/s14502135812528Cadence Design historySL13w9fp0share history
Mon Mar 20 2017 @ 4:41:24 am Sydney, AU US arrow 16.1 MB 11.89 Mbps 1.49 MB/s14502135812528Cadence Design historyW4xXomsjlshare history
Mon Mar 20 2017 @ 4:40:30 am Sydney, AU US arrow 22.9 MB 12.38 Mbps 1.55 MB/s14502135812528Cadence Design historyVzRTLus0Ashare history
Mon Mar 20 2017 @ 4:35:23 am Sydney, AU US arrow 6.1 MB 7.86 Mbps 983 kB/s14502135812528Cadence Design history4VaP1rg8Lshare history
Mon Mar 20 2017 @ 4:34:56 am Sydney, AU US arrow 21.4 MB 13.03 Mbps 1.63 MB/s14502135812528Cadence Design historyrwHAFB6CGshare history
Mon Mar 20 2017 @ 4:29:51 am Sydney, AU US arrow 6.3 MB 13.29 Mbps 1.66 MB/s14502135812528Cadence Design historyQtBrTXhK3share history
Mon Mar 20 2017 @ 4:29:25 am Sydney, AU US arrow 23.1 MB 13.35 Mbps 1.67 MB/s14502135812528Cadence Design historybI7iLC0ecshare history
Mon Mar 20 2017 @ 4:24:21 am Sydney, AU US arrow 6.4 MB 11.86 Mbps 1.48 MB/s14502135812528Cadence Design historyk782s6dKQshare history
Mon Mar 20 2017 @ 4:23:53 am Sydney, AU US arrow 10.9 MB 14.62 Mbps 1.83 MB/s14502135812528Cadence Design historyZdi6wEmWsshare history
Mon Mar 20 2017 @ 4:19:01 am Sydney, AU US arrow 6.1 MB 12.51 Mbps 1.56 MB/s14502135812528Cadence Design historylbPE0NgAoshare history
Mon Mar 20 2017 @ 4:18:29 am Sydney, AU US arrow 11.4 MB 13.82 Mbps 1.73 MB/s14502135812528Cadence Design historyOun2U7haSshare history
Mon Mar 20 2017 @ 4:13:30 am Sydney, AU US arrow 6.2 MB 13.51 Mbps 1.69 MB/s14502135812528Cadence Design historyGeqFVvsTRshare history
Mon Mar 20 2017 @ 4:13:03 am Sydney, AU US arrow 11.5 MB 11.3 Mbps 1.41 MB/s14502135812528Cadence Design historydaiYwIU2Bshare history
Mon Mar 20 2017 @ 4:08:06 am Sydney, AU US arrow 6.1 MB 10.04 Mbps 1.25 MB/s14502135812528Cadence Design historyYuV6ON7MRshare history
Mon Mar 20 2017 @ 4:07:40 am Sydney, AU US arrow 18.6 MB 11.26 Mbps 1.41 MB/s14502135812528Cadence Design history3CQTujhGdshare history
Mon Mar 20 2017 @ 4:02:27 am Sydney, AU US arrow 5.8 MB 13.13 Mbps 1.64 MB/s14502135812528Cadence Design historyKImY8J490share history
  
Displaying Internet Speed Test results for Username kylie maree
Speed Test Version 15.9
© 2017 TestMy Net LLC - TestMy.net - Terms & Privacy - Mobile